Time;durP1;ratioP1;P1;durP2;ratioP2;P2;SDS_P1;SDS_P2;PMS_P1;PMS_P2;Temp;Humidity;BMP_temperature;BMP_pressure;BME280_temperature;BME280_humidity;BME280_pressure;Samples;Min_cycle;Max_cycle;Signal;HPM_P1;HPM_P2
2022/07/24 00:09:33;;;;;;;1.17;0.85;;;;;;;;;;21152870;28;20290;-73
2022/07/24 00:19:34;;;;;;;1.70;1.20;;;;;;;;;;21164045;28;20255;-73
2022/07/24 00:29:36;;;;;;;2.20;1.10;;;;;;;;;;21166448;28;20221;-74
2022/07/24 00:39:38;;;;;;;3.42;0.98;;;;;;;;;;21169215;28;20211;-74
2022/07/24 00:49:39;;;;;;;1.92;0.85;;;;;;;;;;21175690;22;20219;-71
2022/07/24 00:59:41;;;;;;;1.30;0.75;;;;;;;;;;21113334;28;20222;-71
2022/07/24 01:09:44;;;;;;;3.78;1.13;;;;;;;;;;21117115;28;20230;-71
2022/07/24 01:19:46;;;;;;;1.75;1.10;;;;;;;;;;21133724;28;20611;-72
2022/07/24 01:29:48;;;;;;;1.85;1.10;;;25.00;99.50;;;;;;21114715;28;20276;-71
2022/07/24 01:39:50;;;;;;;1.50;0.82;;;;;;;;;;21114771;28;20747;-72
2022/07/24 01:49:51;;;;;;;2.38;1.15;;;;;;;;;;21097285;28;20665;-71
2022/07/24 01:59:53;;;;;;;2.45;0.82;;;;;;;;;;21113681;28;20207;-71
2022/07/24 02:09:55;;;;;;;1.42;1.10;;;;;;;;;;21095713;28;20226;-71
2022/07/24 02:19:57;;;;;;;1.10;0.82;;;;;;;;;;21111379;28;20215;-71
2022/07/24 02:29:59;;;;;;;3.75;1.20;;;;;;;;;;21110354;28;20695;-71
2022/07/24 02:40:01;;;;;;;2.83;1.10;;;;;;;;;;21107820;28;20213;-72
2022/07/24 02:50:03;;;;;;;1.88;1.05;;;24.40;96.00;;;;;;21102167;28;20625;-72
2022/07/24 03:00:08;;;;;;;1.67;1.00;;;24.30;99.90;;;;;;21125444;28;20235;-71
2022/07/24 03:10:11;;;;;;;2.58;1.00;;;;;;;;;;21107629;28;20234;-71
2022/07/24 03:20:13;;;;;;;1.30;0.93;;;;;;;;;;21107416;28;20203;-71
2022/07/24 03:30:16;;;;;;;2.95;1.23;;;24.20;99.90;;;;;;21106713;28;20772;-72
2022/07/24 03:40:17;;;;;;;1.13;0.90;;;;;;;;;;21104334;28;20218;-72
2022/07/24 03:50:19;;;;;;;1.23;0.88;;;;;;;;;;21097309;28;20541;-72
2022/07/24 04:00:21;;;;;;;2.45;1.23;;;;;;;;;;21105661;28;20275;-71
2022/07/24 04:10:23;;;;;;;2.85;1.55;;;;;;;;;;21087387;28;20275;-73
2022/07/24 04:20:25;;;;;;;1.42;1.05;;;;;;;;;;21073194;28;20209;-72
2022/07/24 04:30:27;;;;;;;1.38;1.02;;;24.20;99.90;;;;;;21092699;28;20757;-71
2022/07/24 04:40:30;;;;;;;2.00;1.13;;;;;;;;;;21118990;28;20275;-71
2022/07/24 04:50:31;;;;;;;2.20;1.30;;;;;;;;;;21086096;28;20287;-71
2022/07/24 05:00:33;;;;;;;1.63;1.13;;;23.80;99.90;;;;;;21087634;28;20277;-71
2022/07/24 05:10:35;;;;;;;3.05;1.20;;;;;;;;;;21116636;28;20266;-72
2022/07/24 05:20:37;;;;;;;2.30;1.20;;;;;;;;;;21099744;28;20209;-72
2022/07/24 05:30:39;;;;;;;1.85;1.20;;;;;;;;;;21115278;28;20217;-71
2022/07/24 05:40:41;;;;;;;1.63;1.15;;;;;;;;;;21093264;28;20214;-71
2022/07/24 05:50:43;;;;;;;2.78;1.00;;;;;;;;;;21113551;28;20268;-71
2022/07/24 06:00:45;;;;;;;1.80;0.90;;;24.10;99.90;;;;;;21085321;28;20220;-74
2022/07/24 06:10:47;;;;;;;1.55;1.08;;;;;;;;;;21102072;28;20629;-73
2022/07/24 06:20:49;;;;;;;1.30;1.00;;;;;;;;;;21122084;28;20218;-73
2022/07/24 06:30:50;;;;;;;1.48;1.10;;;24.60;98.30;;;;;;21106954;28;20710;-73
2022/07/24 06:40:53;;;;;;;1.58;0.93;;;;;;;;;;21125629;28;20675;-72
2022/07/24 06:50:55;;;;;;;1.75;1.10;;;;;;;;;;21133978;28;20284;-72
2022/07/24 07:00:57;;;;;;;1.80;1.15;;;;;;;;;;21020102;28;20219;-73
2022/07/24 07:10:58;;;;;;;1.73;1.08;;;;;;;;;;21029205;28;20242;-72
2022/07/24 07:21:00;;;;;;;2.67;1.40;;;;;;;;;;21079883;22;20269;-76
2022/07/24 07:31:02;;;;;;;2.90;1.50;;;;;;;;;;21123222;28;20234;-76
2022/07/24 07:41:04;;;;;;;3.17;1.55;;;25.90;94.90;;;;;;21082508;28;20210;-76
2022/07/24 07:51:06;;;;;;;1.88;1.27;;;25.90;94.40;;;;;;21091036;28;20585;-74
2022/07/24 08:01:08;;;;;;;2.75;1.60;;;;;;;;;;21103132;28;20214;-76
2022/07/24 08:11:09;;;;;;;2.67;1.38;;;;;;;;;;21153393;28;20562;-76
2022/07/24 08:21:11;;;;;;;2.35;1.83;;;;;;;;;;21129641;28;20217;-74
2022/07/24 08:31:13;;;;;;;2.67;1.60;;;;;;;;;;21108769;28;20218;-74
2022/07/24 08:41:14;;;;;;;2.40;1.80;;;;;;;;;;21126004;28;20207;-75
2022/07/24 08:51:16;;;;;;;3.78;1.88;;;;;;;;;;21101055;28;20361;-75
2022/07/24 09:01:18;;;;;;;2.53;1.42;;;;;;;;;;21069048;28;20215;-73
2022/07/24 09:11:20;;;;;;;2.10;1.35;;;;;;;;;;21105279;28;20777;-72
2022/07/24 09:21:21;;;;;;;3.03;1.40;;;;;;;;;;21075618;28;20296;-74
2022/07/24 09:31:24;;;;;;;2.92;1.48;;;;;;;;;;21061060;28;20317;-76
2022/07/24 09:41:26;;;;;;;2.35;1.30;;;;;;;;;;21052970;28;20216;-76
2022/07/24 09:51:29;;;;;;;2.17;1.50;;;;;;;;;;21052279;28;20264;-75
2022/07/24 10:01:32;;;;;;;2.05;1.60;;;;;;;;;;21068781;28;20915;-75
2022/07/24 10:11:35;;;;;;;2.20;1.70;;;;;;;;;;21050914;28;20227;-75
2022/07/24 10:21:37;;;;;;;1.92;1.48;;;29.30;93.00;;;;;;21096216;28;20617;-75
2022/07/24 10:31:44;;;;;;;2.70;1.42;;;29.40;93.30;;;;;;21151882;28;20215;-77
2022/07/24 10:42:02;;;;;;;3.10;1.58;;;;;;;;;;21147851;28;20231;-77
2022/07/24 10:52:04;;;;;;;3.00;1.50;;;;;;;;;;21099235;28;20218;-75
2022/07/24 11:02:28;;;;;;;2.28;1.70;;;;;;;;;;21131030;28;20203;-75
2022/07/24 11:12:42;;;;;;;2.33;1.60;;;30.10;92.30;;;;;;21133709;28;20249;-76
2022/07/24 11:22:48;;;;;;;2.50;1.25;;;;;;;;;;21149314;28;20284;-76
2022/07/24 11:32:50;;;;;;;1.98;1.27;;;;;;;;;;21129789;28;20783;-77
2022/07/24 11:42:56;;;;;;;1.50;1.30;;;;;;;;;;21161005;28;20289;-77
2022/07/24 11:52:58;;;;;;;2.15;1.58;;;;;;;;;;21174975;28;20207;-79
2022/07/24 12:03:03;;;;;;;1.40;1.17;;;;;;;;;;21141021;28;20289;-77
2022/07/24 12:13:04;;;;;;;1.55;1.10;;;;;;;;;;21140384;28;20208;-76
2022/07/24 12:23:12;;;;;;;1.88;1.33;;;31.30;79.90;;;;;;21129655;28;20609;-76
2022/07/24 12:33:20;;;;;;;2.05;1.25;;;;;;;;;;21063205;28;20571;-76
2022/07/24 12:43:22;;;;;;;2.45;1.30;;;;;;;;;;21090844;28;20201;-76
2022/07/24 12:53:23;;;;;;;1.63;1.38;;;;;;;;;;21064532;28;20286;-76
2022/07/24 13:03:28;;;;;;;1.80;1.23;;;;;;;;;;21083142;28;20231;-74
2022/07/24 13:13:30;;;;;;;2.72;1.38;;;;;;;;;;21159824;28;20690;-75
2022/07/24 13:23:33;;;;;;;1.67;1.17;;;;;;;;;;21304224;22;20214;-75
2022/07/24 13:33:35;;;;;;;2.05;1.50;;;;;;;;;;21258091;27;20215;-76
2022/07/24 13:43:38;;;;;;;1.75;1.20;;;;;;;;;;21270912;27;20263;-74
2022/07/24 13:53:40;;;;;;;2.00;1.23;;;;;;;;;;21265078;27;20227;-75
2022/07/24 14:03:42;;;;;;;2.08;1.42;;;;;;;;;;21205623;27;20665;-74
2022/07/24 14:13:44;;;;;;;1.98;1.27;;;;;;;;;;21248208;27;20220;-74
2022/07/24 14:23:46;;;;;;;1.58;1.13;;;;;;;;;;21255789;27;20275;-74
2022/07/24 14:33:47;;;;;;;1.80;1.30;;;;;;;;;;21229073;27;20275;-72
2022/07/24 14:43:50;;;;;;;2.75;1.20;;;;;;;;;;21240949;27;20749;-75
2022/07/24 14:53:52;;;;;;;0.88;0.77;;;;;;;;;;21258333;27;20226;-74
2022/07/24 15:03:54;;;;;;;1.67;0.98;;;;;;;;;;21242722;27;20348;-73
2022/07/24 15:13:57;;;;;;;1.13;0.80;;;;;;;;;;21292947;27;20238;-72
2022/07/24 15:24:00;;;;;;;1.50;1.10;;;;;;;;;;21282936;27;20271;-72
2022/07/24 15:34:02;;;;;;;1.50;1.10;;;;;;;;;;21266730;27;20461;-72
2022/07/24 15:44:05;;;;;;;1.65;1.10;;;;;;;;;;21264966;27;20243;-72
2022/07/24 15:54:07;;;;;;;1.40;0.98;;;;;;;;;;21277512;27;20272;-71
2022/07/24 16:04:09;;;;;;;1.73;0.95;;;;;;;;;;21216829;27;20203;-72
2022/07/24 16:14:11;;;;;;;1.17;0.80;;;;;;;;;;21244379;27;20219;-72
2022/07/24 16:24:13;;;;;;;2.55;1.30;;;;;;;;;;21259469;27;20513;-73
2022/07/24 16:34:15;;;;;;;1.20;0.90;;;;;;;;;;21285040;27;20554;-72
2022/07/24 16:44:17;;;;;;;1.50;1.00;;;;;;;;;;21272191;27;20263;-72
2022/07/24 16:54:19;;;;;;;1.33;0.90;;;;;;;;;;21264640;27;20263;-73
2022/07/24 17:04:21;;;;;;;1.02;0.80;;;;;;;;;;21261235;27;20685;-72
2022/07/24 17:14:24;;;;;;;3.03;0.90;;;;;;;;;;21264127;27;20271;-71
2022/07/24 17:24:47;;;;;;;1.92;1.00;;;;;;;;;;21218459;27;20637;-71
2022/07/24 17:34:48;;;;;;;1.55;1.00;;;;;;;;;;21209295;27;20255;-71
2022/07/24 17:44:50;;;;;;;1.15;0.80;;;;;;;;;;21190937;27;20233;-70
2022/07/24 17:54:52;;;;;;;2.67;1.25;;;;;;;;;;21189326;27;20700;-71
2022/07/24 18:04:55;;;;;;;1.75;1.08;;;;;;;;;;21190291;27;20224;-69
2022/07/24 18:14:57;;;;;;;1.30;1.00;;;;;;;;;;21204077;27;20235;-70
2022/07/24 18:25:09;;;;;;;1.70;1.00;;;;;;;;;;21267796;27;20271;-72
2022/07/24 18:35:11;;;;;;;1.67;1.30;;;;;;;;;;21260464;27;20219;-71
2022/07/24 18:45:13;;;;;;;2.47;1.02;;;;;;;;;;21270525;27;20733;-72
2022/07/24 18:55:15;;;;;;;3.50;1.38;;;;;;;;;;21270420;27;20275;-72
2022/07/24 19:05:17;;;;;;;2.20;1.20;;;;;;;;;;21267115;27;20243;-73
2022/07/24 19:15:19;;;;;;;3.30;1.20;;;;;;;;;;21266738;27;20214;-73
2022/07/24 19:25:24;;;;;;;1.75;1.20;;;;;;;;;;21151410;27;20261;-72
2022/07/24 19:35:28;;;;;;;2.50;1.70;;;;;;;;;;21232543;27;20252;-73
2022/07/24 19:45:31;;;;;;;2.65;1.52;;;;;;;;;;21170408;27;20250;-74
2022/07/24 19:55:33;;;;;;;3.33;1.52;;;;;;;;;;21144808;22;20225;-69
2022/07/24 20:05:36;;;;;;;7.68;2.22;;;;;;;;;;21092528;28;20216;-70
2022/07/24 20:15:37;;;;;;;4.68;1.60;;;;;;;;;;21063959;28;20224;-70
2022/07/24 20:25:39;;;;;;;1.98;1.20;;;;;;;;;;21096439;28;20196;-70
2022/07/24 20:35:41;;;;;;;3.53;2.10;;;;;;;;;;21104929;28;20220;-70
2022/07/24 20:45:43;;;;;;;3.15;1.40;;;;;;;;;;21097823;27;20679;-70
2022/07/24 20:55:45;;;;;;;2.20;1.40;;;30.90;80.90;;;;;;21036712;27;20219;-70
2022/07/24 21:05:51;;;;;;;1.77;1.20;;;;;;;;;;21057615;28;20204;-69
2022/07/24 21:15:52;;;;;;;1.67;1.23;;;;;;;;;;21064404;28;20282;-70
2022/07/24 21:25:54;;;;;;;1.88;1.27;;;;;;;;;;21043918;28;20220;-70
2022/07/24 21:35:56;;;;;;;1.80;1.30;;;;;;;;;;21121175;28;20306;-70
2022/07/24 21:45:58;;;;;;;1.90;1.38;;;;;;;;;;21046253;28;20740;-70
2022/07/24 21:56:00;;;;;;;1.98;1.13;;;;;;;;;;21072162;27;20603;-70
2022/07/24 22:06:02;;;;;;;2.00;1.30;;;;;;;;;;21058664;28;20266;-69
2022/07/24 22:16:04;;;;;;;2.53;1.45;;;;;;;;;;21074229;28;20255;-69
2022/07/24 22:26:06;;;;;;;2.60;1.88;;;;;;;;;;21053520;28;20240;-69
2022/07/24 22:36:10;;;;;;;2.78;1.83;;;;;;;;;;21120790;28;20223;-69
2022/07/24 22:46:14;;;;;;;1.98;1.42;;;28.30;84.80;;;;;;21102884;28;20216;-69
2022/07/24 22:56:16;;;;;;;2.55;1.55;;;;;;;;;;21088030;28;20265;-69
2022/07/24 23:06:18;;;;;;;2.38;1.50;;;;;;;;;;21102803;28;20215;-69
2022/07/24 23:16:20;;;;;;;2.70;1.67;;;;;;;;;;21041402;28;20269;-69
2022/07/24 23:26:22;;;;;;;2.42;1.60;;;;;;;;;;21057344;28;20574;-69
2022/07/24 23:36:24;;;;;;;2.92;1.73;;;;;;;;;;21105688;28;20635;-69
2022/07/24 23:46:26;;;;;;;2.60;1.60;;;;;;;;;;21113761;28;20719;-69
2022/07/24 23:56:29;;;;;;;2.38;1.65;;;;;;;;;;21091596;28;20757;-71
